Time;durP1;ratioP1;P1;durP2;ratioP2;P2;SDS_P1;SDS_P2;PMS_P1;PMS_P2;Temp;Humidity;BMP_temperature;BMP_pressure;BME280_temperature;BME280_humidity;BME280_pressure;Samples;Min_cycle;Max_cycle;Signal;HPM_P1;HPM_P2
2022/03/25 00:00:50;;;;;;;0.10;0.10;;;;;;;;;;5112289;28;20243;-78
2022/03/25 00:03:17;;;;;;;0.20;0.20;;;;;;;;;;5123136;28;20259;-78
2022/03/25 00:05:43;;;;;;;0.10;0.10;;;;;;;;;;5111872;28;20240;-77
2022/03/25 00:08:11;;;;;;;0.10;0.10;;;;;;;;;;5122776;28;20278;-79
2022/03/25 00:10:37;;;;;;;0.10;0.10;;;;;;;;;;5112766;28;20237;-78
2022/03/25 00:13:05;;;;;;;0.10;0.10;;;;;;;;;;5122900;28;20395;-78
2022/03/25 00:15:40;;;;;;;0.10;0.10;;;;;;;;;;5112784;28;20241;-78
2022/03/25 00:18:09;;;;;;;0.10;0.10;;;;;;;;;;5122645;28;20363;-78
2022/03/25 00:20:36;;;;;;;0.10;0.10;;;;;;;;;;5109161;28;20293;-78
2022/03/25 00:23:04;;;;;;;0.10;0.10;;;;;;;;;;5123163;28;20244;-78
2022/03/25 00:25:32;;;;;;;2.33;2.23;;;;;;;;;;5107016;28;20611;-78
2022/03/25 00:28:08;;;;;;;0.10;0.10;;;;;;;;;;5122943;28;20245;-77
2022/03/25 00:30:36;;;;;;;0.10;0.10;;;;;;;;;;5099796;28;20423;-79
2022/03/25 00:33:02;;;;;;;0.10;0.10;;;;;;;;;;5059541;28;20312;-78
2022/03/25 00:35:29;;;;;;;0.10;0.10;;;;;;;;;;5046332;28;20236;-79
2022/03/25 00:37:55;;;;;;;0.10;0.10;;;;;;;;;;5061100;28;20208;-79
2022/03/25 00:40:29;;;;;;;0.10;0.10;;;;;;;;;;5049128;28;20253;-78
2022/03/25 00:43:03;;;;;;;1.13;1.13;;;;;;;;;;5060661;28;20215;-78
2022/03/25 00:45:31;;;;;;;0.10;0.10;;;;;;;;;;5050234;28;20299;-79
2022/03/25 00:47:59;;;;;;;0.10;0.10;;;;;;;;;;5060511;28;20234;-78
2022/03/25 00:50:25;;;;;;;0.10;0.10;;;;;;;;;;5050243;28;20571;-78
2022/03/25 00:52:52;;;;;;;0.10;0.10;;;;;;;;;;5060756;28;20214;-78
2022/03/25 00:55:19;;;;;;;0.10;0.10;;;;;;;;;;5049666;28;20215;-78
2022/03/25 00:57:45;;;;;;;0.10;0.10;;;;;;;;;;5097279;28;20524;-79
2022/03/25 01:00:13;;;;;;;0.87;0.87;;;;;;;;;;5112114;28;20220;-78
2022/03/25 01:02:40;;;;;;;0.10;0.10;;;;;;;;;;5122560;28;20205;-77
2022/03/25 01:05:06;;;;;;;5.30;5.03;;;;;;;;;;5123527;28;20205;-78
2022/03/25 01:07:34;;;;;;;0.10;0.10;;;;;;;;;;5030345;28;20236;-79
2022/03/25 01:10:00;;;;;;;0.27;0.27;;;;;;;;;;5044551;28;20453;-79
2022/03/25 01:12:29;;;;;;;0.97;0.97;;;;;;;;;;5034104;28;20255;-79
2022/03/25 01:14:56;;;;;;;0.10;0.10;;;;;;;;;;5044367;28;20249;-78
2022/03/25 01:17:25;;;;;;;0.10;0.10;;;;;;;;;;5034024;28;20251;-79
2022/03/25 01:19:51;;;;;;;0.97;0.93;;;;;;;;;;5044375;28;20229;-78
2022/03/25 01:22:19;;;;;;;0.10;0.10;;;;;;;;;;5033843;28;20550;-78
2022/03/25 01:24:48;;;;;;;0.10;0.10;;;;;;;;;;5044228;28;20213;-78
2022/03/25 01:27:17;;;;;;;0.20;0.20;;;;;;;;;;5001305;28;20245;-79
2022/03/25 01:29:44;;;;;;;0.10;0.10;;;;;;;;;;5004526;28;20211;-78
2022/03/25 01:32:13;;;;;;;0.10;0.10;;;;;;;;;;5031948;28;20252;-78
2022/03/25 01:34:44;;;;;;;0.57;0.57;;;;;;;;;;5083851;28;20278;-77
2022/03/25 01:37:11;;;;;;;0.20;0.20;;;;;;;;;;5042695;28;20564;-78
2022/03/25 01:39:38;;;;;;;0.30;0.30;;;;;;;;;;5043510;28;20237;-78
2022/03/25 01:42:10;;;;;;;0.10;0.10;;;;;;;;;;5030811;28;20305;-78
2022/03/25 01:44:40;;;;;;;0.10;0.10;;;;;;;;;;5043787;28;20282;-77
2022/03/25 01:47:08;;;;;;;0.20;0.20;;;;;;;;;;5031436;28;20316;-77
2022/03/25 01:50:06;;;;;;;0.10;0.10;;;;;;;;;;5043778;28;20210;-79
2022/03/25 01:52:35;;;;;;;0.10;0.10;;;;;;;;;;4973911;28;20261;-77
2022/03/25 01:55:14;;;;;;;0.10;0.10;;;;;;;;;;4983950;28;20233;-77
2022/03/25 01:57:41;;;;;;;0.10;0.10;;;;;;;;;;4983771;28;20205;-77
2022/03/25 02:00:08;;;;;;;0.10;0.10;;;;;;;;;;4973813;28;20231;-77
2022/03/25 02:02:40;;;;;;;0.10;0.10;;;;;;;;;;5028987;28;20268;-79
2022/03/25 02:05:08;;;;;;;5.63;5.23;;;;;;;;;;5052845;28;20210;-80
2022/03/25 02:07:36;;;;;;;1.40;1.33;;;;;;;;;;5062891;28;20286;-79
2022/03/25 02:10:05;;;;;;;0.10;0.10;;;;;;;;;;5077933;28;20401;-78
2022/03/25 02:12:35;;;;;;;0.50;0.50;;;;;;;;;;5097153;28;20237;-79
2022/03/25 02:15:02;;;;;;;0.10;0.10;;;;;;;;;;5125892;28;20211;-78
2022/03/25 02:17:29;;;;;;;0.17;0.17;;;;;;;;;;5113888;28;20435;-77
2022/03/25 02:19:56;;;;;;;0.10;0.10;;;;;;;;;;5124894;28;20204;-77
2022/03/25 02:22:26;;;;;;;0.10;0.10;;;;;;;;;;5113827;28;20248;-77
2022/03/25 02:24:54;;;;;;;0.10;0.10;;;;;;;;;;5125400;28;20268;-77
2022/03/25 02:27:22;;;;;;;0.70;0.70;;;;;;;;;;5055865;28;20245;-79
2022/03/25 02:29:48;;;;;;;0.10;0.10;;;;;;;;;;5062331;28;20215;-79
2022/03/25 02:32:15;;;;;;;0.20;0.20;;;;;;;;;;5052146;28;20271;-80
2022/03/25 02:34:41;;;;;;;6.23;5.93;;;;;;;;;;5062192;28;20614;-79
2022/03/25 02:37:10;;;;;;;0.10;0.10;;;;;;;;;;5052144;28;20269;-78
2022/03/25 02:39:38;;;;;;;1.17;1.17;;;;;;;;;;5062283;28;20214;-78
2022/03/25 02:42:05;;;;;;;0.10;0.10;;;;;;;;;;5051771;28;20251;-78
2022/03/25 02:44:31;;;;;;;0.10;0.10;;;;;;;;;;5062297;28;20289;-78
2022/03/25 02:46:58;;;;;;;0.20;0.20;;;;;;;;;;5051931;28;20249;-77
2022/03/25 02:49:25;;;;;;;0.10;0.10;;;;;;;;;;5062600;28;20302;-78
2022/03/25 02:51:55;;;;;;;0.10;0.10;;;;;;;;;;5072735;28;20299;-77
2022/03/25 02:54:24;;;;;;;0.10;0.10;;;;;;;;;;5125465;28;20414;-78
2022/03/25 02:56:54;;;;;;;0.10;0.10;;;;;;;;;;5111061;28;20239;-77
2022/03/25 02:59:21;;;;;;;0.20;0.20;;;;;;;;;;5125292;28;20237;-77
2022/03/25 03:01:47;;;;;;;0.20;0.20;;;;;;;;;;5113386;28;20285;-77
2022/03/25 03:04:14;;;;;;;0.10;0.10;;;;;;;;;;5125375;28;20246;-78
2022/03/25 03:06:41;;;;;;;1.60;1.60;;;;;;;;;;5113790;28;20245;-77
2022/03/25 03:09:10;;;;;;;0.20;0.20;;;;;;;;;;5125189;28;20284;-78
2022/03/25 03:11:37;;;;;;;0.10;0.10;;;;;;;;;;5112865;28;20244;-79
2022/03/25 03:14:05;;;;;;;1.13;1.13;;;;;;;;;;5124785;28;20207;-77
2022/03/25 03:16:32;;;;;;;0.10;0.10;;;;;;;;;;5113344;28;20244;-78
2022/03/25 03:19:00;;;;;;;0.10;0.10;;;;;;;;;;5124701;28;20236;-78
2022/03/25 03:21:29;;;;;;;0.27;0.27;;;;;;;;;;5112891;28;20306;-77
2022/03/25 03:23:57;;;;;;;0.20;0.20;;;;;;;;;;5105977;28;20233;-78
2022/03/25 03:26:26;;;;;;;0.10;0.10;;;;;;;;;;5112893;28;20265;-77
2022/03/25 03:28:53;;;;;;;0.20;0.20;;;;;;;;;;5123964;28;20227;-77
2022/03/25 03:31:21;;;;;;;0.10;0.10;;;;;;;;;;5111953;28;20244;-77
2022/03/25 03:33:51;;;;;;;0.20;0.20;;;;;;;;;;5123670;28;20391;-77
2022/03/25 03:36:18;;;;;;;0.10;0.10;;;;;;;;;;5110167;28;20242;-77
2022/03/25 03:38:50;;;;;;;0.10;0.10;;;;;;;;;;5123977;28;20209;-77
2022/03/25 03:41:20;;;;;;;0.10;0.10;;;;;;;;;;5081885;28;20373;-77
2022/03/25 03:43:51;;;;;;;0.10;0.10;;;;;;;;;;5061025;28;20550;-78
2022/03/25 03:46:22;;;;;;;0.10;0.10;;;;;;;;;;5030856;28;20289;-77
2022/03/25 03:49:01;;;;;;;0.80;0.80;;;;;;;;;;5021097;28;20231;-78
2022/03/25 03:51:31;;;;;;;0.73;0.73;;;;;;;;;;4989541;28;20247;-78
2022/03/25 03:54:00;;;;;;;0.10;0.10;;;;;;;;;;4982039;28;20263;-78
2022/03/25 03:56:29;;;;;;;0.10;0.10;;;;;;;;;;4972301;28;20260;-79
2022/03/25 03:59:02;;;;;;;0.10;0.10;;;;;;;;;;4981577;28;20440;-78
2022/03/25 04:06:29;;;;;;;0.10;0.10;;;;;;;;;;4950222;28;20547;-77
2022/03/25 04:09:06;;;;;;;0.10;0.10;;;;;;;;;;4962346;29;20228;-78
2022/03/25 04:11:54;;;;;;;0.10;0.10;;;;;;;;;;4980826;28;20244;-78
2022/03/25 04:20:12;;;;;;;;;;;;;;;;;;;;;
2022/03/25 04:22:47;;;;;;;0.20;0.20;;;;;;;;;;5023575;28;22335;-78
2022/03/25 04:25:16;;;;;;;0.10;0.10;;;;;;;;;;5030359;28;20222;-78
2022/03/25 04:27:51;;;;;;;1.80;1.80;;;;;;;;;;5054644;28;20210;-78
2022/03/25 04:30:32;;;;;;;0.20;0.20;;;;;;;;;;5045330;28;20230;-77
2022/03/25 04:33:00;;;;;;;0.47;0.47;;;;;;;;;;5000279;28;20486;-77
2022/03/25 04:35:29;;;;;;;1.60;1.53;;;;;;;;;;4990167;28;20263;-77
2022/03/25 04:38:24;;;;;;;0.10;0.10;;;;;;;;;;5000745;28;20222;-78
2022/03/25 04:41:02;;;;;;;0.10;0.10;;;;;;;;;;4990378;28;20243;-77
2022/03/25 04:43:33;;;;;;;2.67;2.47;;;;;;;;;;4988751;28;20215;-78
2022/03/25 04:46:09;;;;;;;0.30;0.30;;;;;;;;;;4958745;28;20433;-78
2022/03/25 04:48:42;;;;;;;0.10;0.10;;;;;;;;;;4987178;28;20246;-78
2022/03/25 04:51:18;;;;;;;0.20;0.20;;;;;;;;;;4997149;28;20246;-78
2022/03/25 04:53:49;;;;;;;0.10;0.10;;;;;;;;;;5007208;28;20278;-78
2022/03/25 04:56:21;;;;;;;1.47;1.47;;;;;;;;;;5002095;28;20243;-78
2022/03/25 04:58:51;;;;;;;0.10;0.10;;;;;;;;;;5066759;28;20205;-78
2022/03/25 05:01:36;;;;;;;0.20;0.20;;;;;;;;;;5056044;28;20245;-76
2022/03/25 05:04:04;;;;;;;0.10;0.10;;;;;;;;;;5065699;28;20216;-77
2022/03/25 05:06:32;;;;;;;0.20;0.20;;;;;;;;;;5044012;28;20555;-77
2022/03/25 05:09:06;;;;;;;15.93;7.33;;;;;;;;;;5046193;28;20295;-78
2022/03/25 05:11:37;;;;;;;0.10;0.10;;;;;;;;;;5030889;28;20339;-76
2022/03/25 05:14:07;;;;;;;0.10;0.10;;;;;;;;;;5046380;28;20263;-77
2022/03/25 05:16:59;;;;;;;3.13;3.03;;;;;;;;;;5035567;28;20262;-78
2022/03/25 05:19:35;;;;;;;0.10;0.10;;;;;;;;;;5042354;28;20261;-79
2022/03/25 05:22:28;;;;;;;;;;;;;;;;;;;;;
2022/03/25 05:24:56;;;;;;;0.10;0.10;;;;;;;;;;5022716;28;20484;-77
2022/03/25 05:27:45;;;;;;;;;;;;;;;;;;;;;
2022/03/25 05:30:18;;;;;;;0.20;0.20;;;;;;;;;;5058984;28;20266;-80
2022/03/25 05:32:49;;;;;;;1.70;1.70;;;;;;;;;;5085774;28;20208;-78
2022/03/25 05:35:21;;;;;;;0.10;0.10;;;;;;;;;;5072884;28;20421;-78
2022/03/25 05:38:05;;;;;;;0.20;0.20;;;;;;;;;;5046202;28;20209;-78
2022/03/25 05:40:41;;;;;;;0.10;0.10;;;;;;;;;;5032453;28;20345;-78
2022/03/25 05:43:14;;;;;;;0.10;0.10;;;;;;;;;;5026447;28;20213;-78
2022/03/25 05:45:41;;;;;;;0.23;0.23;;;;;;;;;;5011345;28;20246;-79
2022/03/25 05:48:16;;;;;;;0.10;0.10;;;;;;;;;;5006576;28;20294;-78
2022/03/25 06:29:52;;;;;;;1.03;1.03;;;;;;;;;;5182392;27;20715;-80
2022/03/25 06:32:21;;;;;;;0.10;0.10;;;;;;;;;;5127485;27;20237;-76
2022/03/25 06:34:48;;;;;;;0.43;0.43;;;;;;;;;;5120791;28;20281;-78
2022/03/25 06:37:14;;;;;;;4.73;4.40;;;;;;;;;;5126071;27;20246;-79
2022/03/25 06:39:40;;;;;;;0.10;0.10;;;;;;;;;;5119803;28;20515;-78
2022/03/25 06:42:07;;;;;;;0.10;0.10;;;;;;;;;;5125897;27;20237;-78
2022/03/25 06:44:33;;;;;;;0.10;0.10;;;;;;;;;;5121398;28;20203;-79
2022/03/25 06:47:01;;;;;;;0.10;0.10;;;;;;;;;;5123968;27;20480;-78
2022/03/25 06:49:27;;;;;;;0.30;0.30;;;;;;;;;;5122079;27;20243;-78
2022/03/25 06:51:54;;;;;;;0.30;0.30;;;;;;;;;;5124352;27;20299;-78
2022/03/25 06:54:21;;;;;;;0.10;0.10;;;;;;;;;;5121783;28;20209;-79
2022/03/25 06:56:47;;;;;;;0.10;0.10;;;;;;;;;;5123102;27;20431;-78
2022/03/25 06:59:15;;;;;;;0.10;0.10;;;;;;;;;;5122347;27;20239;-78
2022/03/25 07:01:44;;;;;;;0.10;0.10;;;;;;;;;;5122237;27;20334;-79
2022/03/25 07:04:21;;;;;;;0.10;0.10;;;;;;;;;;5122335;28;20209;-78
2022/03/25 07:06:49;;;;;;;0.10;0.10;;;;;;;;;;5122966;27;20242;-80
2022/03/25 07:09:16;;;;;;;1.07;1.07;;;;;;;;;;5121632;27;20290;-79
2022/03/25 07:11:42;;;;;;;1.80;1.70;;;;;;;;;;5121877;27;20271;-78
2022/03/25 07:14:09;;;;;;;0.20;0.20;;;;;;;;;;5122444;27;20268;-80
2022/03/25 07:16:37;;;;;;;0.10;0.10;;;;;;;;;;5121035;27;20240;-79
2022/03/25 07:19:03;;;;;;;5.87;5.50;;;;;;;;;;5121176;28;20219;-82
2022/03/25 07:21:31;;;;;;;0.10;0.10;;;;;;;;;;5113791;28;20255;-80
2022/03/25 07:23:57;;;;;;;0.10;0.10;;;;;;;;;;5124762;28;20204;-81
2022/03/25 07:26:23;;;;;;;0.10;0.10;;;;;;;;;;5120611;27;20381;-79
2022/03/25 07:28:51;;;;;;;0.73;0.73;;;;;;;;;;5125212;28;20232;-80
2022/03/25 07:31:28;;;;;;;0.20;0.20;;;;;;;;;;5119648;27;20253;-81
2022/03/25 07:33:54;;;;;;;0.10;0.10;;;;;;;;;;5126385;28;20285;-81
2022/03/25 07:36:22;;;;;;;0.10;0.10;;;;;;;;;;5110573;28;20245;-80
2022/03/25 07:38:53;;;;;;;0.10;0.10;;;;;;;;;;5120077;28;20220;-80
2022/03/25 07:41:20;;;;;;;0.10;0.10;;;;;;;;;;5073358;28;20240;-80
2022/03/25 07:43:48;;;;;;;0.10;0.10;;;;;;;;;;5063682;28;20329;-80
2022/03/25 07:46:16;;;;;;;0.10;0.10;;;;;;;;;;5052546;28;20251;-80
2022/03/25 07:48:42;;;;;;;0.10;0.10;;;;;;;;;;5063426;28;20525;-78
2022/03/25 07:51:09;;;;;;;0.10;0.10;;;;;;;;;;5052963;28;20284;-77
2022/03/25 07:53:35;;;;;;;1.80;1.70;;;;;;;;;;5062771;28;20237;-79
2022/03/25 07:56:12;;;;;;;0.57;0.57;;;;;;;;;;5052459;28;20521;-79
2022/03/25 07:58:39;;;;;;;0.20;0.20;;;;;;;;;;5062494;28;20282;-78
2022/03/25 08:01:11;;;;;;;0.10;0.10;;;;;;;;;;5040830;28;20245;-74
2022/03/25 08:03:49;;;;;;;0.63;0.63;;;;;;;;;;5042471;28;20207;-77
2022/03/25 08:06:16;;;;;;;0.10;0.10;;;;;;;;;;5015342;28;20244;-76
2022/03/25 08:08:42;;;;;;;0.10;0.10;;;;;;;;;;5022768;28;20275;-76
2022/03/25 08:11:13;;;;;;;7.43;6.83;;;;;;;;;;5012531;28;20452;-76
2022/03/25 08:13:39;;;;;;;0.30;0.30;;;;;;;;;;5035209;28;20216;-77
2022/03/25 08:16:06;;;;;;;4.83;4.33;;;;;;;;;;5032372;28;20250;-78
2022/03/25 08:18:33;;;;;;;0.70;0.70;;;;;;;;;;5042046;28;20453;-78
2022/03/25 08:20:59;;;;;;;6.53;6.23;;;;;;;;;;5032141;28;20294;-76
2022/03/25 08:28:57;;;;;;;0.00;0.00;;;;;;;;;;5042252;28;20598;-80
2022/03/25 08:31:24;;;;;;;8.70;8.03;;;;;;;;;;5041521;28;20260;-80
2022/03/25 08:33:50;;;;;;;4.47;4.33;;;;;;;;;;5083011;28;20205;-75
2022/03/25 08:36:20;;;;;;;0.00;0.00;;;;;;;;;;5071841;28;20249;-76
2022/03/25 08:38:46;;;;;;;0.00;0.00;;;;;;;;;;5083012;28;20209;-75
2022/03/25 08:41:13;;;;;;;1.65;1.55;;;;;;;;;;5072661;28;20289;-75
2022/03/25 08:43:39;;;;;;;0.07;0.07;;;;;;;;;;5082922;28;20283;-75
2022/03/25 08:46:08;;;;;;;0.77;0.77;;;;;;;;;;5072380;28;20285;-76
2022/03/25 08:48:34;;;;;;;3.28;3.17;;;;;;;;;;5082821;28;20265;-74
2022/03/25 08:51:01;;;;;;;0.10;0.10;;;;;;;;;;5071565;28;20423;-74
2022/03/25 08:53:27;;;;;;;1.48;1.38;;;;;;;;;;5082255;28;20455;-76
2022/03/25 08:55:54;;;;;;;1.10;1.10;;;;;;;;;;5072405;28;20240;-74
2022/03/25 08:58:20;;;;;;;0.00;0.00;;;;;;;;;;5082569;28;20206;-75
2022/03/25 09:00:46;;;;;;;0.00;0.00;;;;;;;;;;5072451;28;20245;-77
2022/03/25 09:03:14;;;;;;;0.00;0.00;;;;;;;;;;5082660;28;20204;-75
2022/03/25 09:05:41;;;;;;;1.65;1.55;;;;;;;;;;5072041;28;20585;-69
2022/03/25 09:08:07;;;;;;;0.10;0.10;;;;;;;;;;5082447;28;20724;-67
2022/03/25 09:10:34;;;;;;;3.42;3.00;;;;;;;;;;5072175;28;20256;-69
2022/03/25 09:13:00;;;;;;;0.10;0.10;;;;;;;;;;5082104;28;20215;-75
2022/03/25 09:15:27;;;;;;;0.00;0.00;;;;;;;;;;5071780;28;20480;-72
2022/03/25 09:17:53;;;;;;;1.02;0.98;;;;;;;;;;5084642;28;20193;-74
2022/03/25 09:20:21;;;;;;;1.17;1.17;;;;;;;;;;5118006;27;20206;-73
2022/03/25 09:22:47;;;;;;;0.63;0.63;;;;;;;;;;5153373;27;20306;-73
2022/03/25 09:25:13;;;;;;;4.70;4.47;;;;;;;;;;5116351;27;20282;-74
2022/03/25 09:27:40;;;;;;;0.00;0.00;;;;;;;;;;5155275;27;20233;-73
2022/03/25 09:30:07;;;;;;;0.00;0.00;;;;;;;;;;5116094;27;20264;-73
2022/03/25 09:32:33;;;;;;;0.00;0.00;;;;;;;;;;5156657;27;20216;-73
2022/03/25 09:35:13;;;;;;;0.10;0.10;;;;;;;;;;5124319;27;20417;-74
2022/03/25 09:37:42;;;;;;;2.83;1.52;;;;;;;;;;5122841;28;20216;-72
2022/03/25 09:40:09;;;;;;;0.00;0.00;;;;;;;;;;5114450;27;20210;-72
2022/03/25 09:42:36;;;;;;;1.00;0.95;;;;;;;;;;5139530;27;20204;-72
2022/03/25 09:45:03;;;;;;;0.00;0.00;;;;;;;;;;5124474;28;20319;-73
2022/03/25 09:47:31;;;;;;;0.00;0.00;;;;;;;;;;5146860;27;20249;-73
2022/03/25 09:49:58;;;;;;;0.00;0.00;;;;;;;;;;5124286;28;20463;-72
2022/03/25 09:52:26;;;;;;;0.20;0.20;;;;;;;;;;5146590;27;20236;-72
2022/03/25 09:54:54;;;;;;;0.00;0.00;;;;;;;;;;5124194;28;20206;-73
2022/03/25 09:57:20;;;;;;;0.00;0.00;;;;;;;;;;5146392;27;20246;-72
2022/03/25 09:59:47;;;;;;;3.40;0.40;;;;;;;;;;5124240;28;20232;-72
2022/03/25 10:02:13;;;;;;;0.00;0.00;;;;;;;;;;5146267;27;20628;-73
2022/03/25 10:04:43;;;;;;;0.57;0.57;;;;;;;;;;5123978;28;20209;-73
2022/03/25 10:07:17;;;;;;;0.20;0.20;;;;;;;;;;5145993;27;20281;-73
2022/03/25 10:09:43;;;;;;;0.30;0.30;;;;;;;;;;5123564;28;20621;-73
2022/03/25 10:12:22;;;;;;;0.00;0.00;;;;;;;;;;5146029;27;20258;-73
2022/03/25 10:14:50;;;;;;;0.00;0.00;;;;;;;;;;5123903;28;20237;-73
2022/03/25 10:17:16;;;;;;;1.45;1.45;;;;;;;;;;5146179;27;20297;-73
2022/03/25 10:19:47;;;;;;;0.00;0.00;;;;;;;;;;5123618;28;20198;-73
2022/03/25 10:22:15;;;;;;;0.82;0.82;;;;;;;;;;5146105;27;20244;-72
2022/03/25 10:24:42;;;;;;;1.30;1.30;;;;;;;;;;5123752;27;20383;-73
2022/03/25 10:27:09;;;;;;;0.00;0.00;;;;;;;;;;5146387;27;20236;-74
2022/03/25 10:29:37;;;;;;;0.00;0.00;;;;;;;;;;5123769;28;20253;-73
2022/03/25 10:32:04;;;;;;;0.00;0.00;;;;;;;;;;5145440;27;20255;-73
2022/03/25 10:34:31;;;;;;;0.38;0.38;;;;;;;;;;5123770;27;20225;-72
2022/03/25 10:37:00;;;;;;;0.00;0.00;;;;;;;;;;5144142;27;20244;-73
2022/03/25 10:39:27;;;;;;;0.00;0.00;;;;;;;;;;5124649;27;20205;-73
2022/03/25 10:41:58;;;;;;;0.00;0.00;;;;;;;;;;5143084;27;20236;-72
2022/03/25 10:44:33;;;;;;;0.00;0.00;;;;;;;;;;5125127;27;20236;-73
2022/03/25 10:47:19;;;;;;;0.00;0.00;;;;;;;;;;5144067;27;20491;-73
2022/03/25 10:49:49;;;;;;;0.15;0.15;;;;;;;;;;5123861;28;20346;-75
2022/03/25 10:52:20;;;;;;;0.00;0.00;;;;;;;;;;5146151;27;20294;-72
2022/03/25 10:54:47;;;;;;;0.00;0.00;;;;;;;;;;5123899;28;20209;-75
2022/03/25 10:57:15;;;;;;;0.32;0.32;;;;;;;;;;5146075;27;20451;-74
2022/03/25 10:59:42;;;;;;;0.40;0.40;;;;;;;;;;5123579;28;20206;-74
2022/03/25 11:02:11;;;;;;;0.00;0.00;;;;;;;;;;5146469;27;20344;-74
2022/03/25 11:04:38;;;;;;;0.00;0.00;;;;;;;;;;5123903;28;20278;-76
2022/03/25 11:07:05;;;;;;;2.47;2.28;;;;;;;;;;5145562;27;20290;-74
2022/03/25 11:09:31;;;;;;;0.00;0.00;;;;;;;;;;5123786;27;20517;-74
2022/03/25 11:11:58;;;;;;;14.70;12.13;;;;;;;;;;5143627;27;20241;-73
2022/03/25 11:14:24;;;;;;;0.00;0.00;;;;;;;;;;5126085;27;20450;-74
2022/03/25 11:16:55;;;;;;;0.25;0.25;;;;;;;;;;5146059;27;20240;-75
2022/03/25 11:19:23;;;;;;;0.20;0.20;;;;;;;;;;5130868;27;20443;-76
2022/03/25 11:21:50;;;;;;;0.10;0.10;;;;;;;;;;5146360;27;20240;-73
2022/03/25 11:24:19;;;;;;;0.05;0.05;;;;;;;;;;5131989;27;20209;-73
2022/03/25 11:26:47;;;;;;;0.00;0.00;;;;;;;;;;5144786;27;20236;-73
2022/03/25 11:29:14;;;;;;;0.00;0.00;;;;;;;;;;5131565;27;20233;-74
2022/03/25 11:31:59;;;;;;;0.00;0.00;;;;;;;;;;5142969;27;20259;-75
2022/03/25 11:34:27;;;;;;;0.00;0.00;;;;;;;;;;5128212;27;20253;-72
2022/03/25 11:37:15;;;;;;;0.00;0.00;;;;;;;;;;5146164;27;20236;-73
2022/03/25 11:39:41;;;;;;;0.00;0.00;;;;;;;;;;5127271;28;20210;-73
2022/03/25 11:42:28;;;;;;;0.00;0.00;;;;;;;;;;5149514;27;20242;-73
2022/03/25 11:45:09;;;;;;;0.00;0.00;;;;;;;;;;5126931;27;20202;-73
2022/03/25 11:47:36;;;;;;;0.00;0.00;;;;;;;;;;5114706;28;20237;-75
2022/03/25 11:50:17;;;;;;;1.65;1.55;;;;;;;;;;5127015;28;20225;-73
2022/03/25 11:52:46;;;;;;;5.32;5.13;;;;;;;;;;5125919;27;20197;-72
2022/03/25 11:55:12;;;;;;;0.17;0.17;;;;;;;;;;5117346;27;20320;-72
2022/03/25 11:57:39;;;;;;;3.70;3.38;;;;;;;;;;5157813;27;20191;-73
2022/03/25 12:00:10;;;;;;;0.00;0.00;;;;;;;;;;5126814;28;20497;-73
2022/03/25 12:02:38;;;;;;;0.00;0.00;;;;;;;;;;5114153;28;20252;-73
2022/03/25 12:05:05;;;;;;;0.25;0.25;;;;;;;;;;5126592;28;20225;-72
2022/03/25 12:07:31;;;;;;;0.52;0.52;;;;;;;;;;5114334;28;20198;-72
2022/03/25 12:09:59;;;;;;;0.10;0.10;;;;;;;;;;5126428;27;20290;-74
2022/03/25 12:12:40;;;;;;;0.00;0.00;;;;;;;;;;5148683;27;20244;-73
2022/03/25 12:15:10;;;;;;;1.27;1.27;;;;;;;;;;5103144;27;20228;-73
2022/03/25 12:17:36;;;;;;;0.00;0.00;;;;;;;;;;5157952;27;20373;-74
2022/03/25 12:20:03;;;;;;;0.00;0.00;;;;;;;;;;5126273;28;20553;-74
2022/03/25 12:22:34;;;;;;;0.00;0.00;;;;;;;;;;5148493;27;20549;-74
2022/03/25 12:25:22;;;;;;;0.00;0.00;;;;;;;;;;5126311;28;20202;-74
2022/03/25 12:27:51;;;;;;;0.10;0.10;;;;;;;;;;5120178;27;20219;-72
2022/03/25 12:30:18;;;;;;;0.00;0.00;;;;;;;;;;5118179;27;20251;-73
2022/03/25 12:32:44;;;;;;;0.00;0.00;;;;;;;;;;5155411;27;20539;-72
2022/03/25 12:35:13;;;;;;;0.10;0.10;;;;;;;;;;5115891;27;20233;-71
2022/03/25 12:37:54;;;;;;;0.05;0.05;;;;;;;;;;5157198;27;20202;-73
2022/03/25 12:40:23;;;;;;;0.00;0.00;;;;;;;;;;5119224;27;20289;-75
2022/03/25 12:42:51;;;;;;;0.00;0.00;;;;;;;;;;5153823;27;20191;-73
2022/03/25 12:45:18;;;;;;;0.10;0.10;;;;;;;;;;5118356;27;20215;-73
2022/03/25 12:47:45;;;;;;;4.78;2.08;;;;;;;;;;5155058;27;20263;-74
2022/03/25 12:50:14;;;;;;;1.17;1.17;;;;;;;;;;5116279;27;20536;-73
2022/03/25 12:52:41;;;;;;;0.10;0.10;;;;;;;;;;5155719;27;20197;-74
2022/03/25 12:55:08;;;;;;;0.00;0.00;;;;;;;;;;5115360;27;20386;-73
2022/03/25 12:57:35;;;;;;;0.00;0.00;;;;;;;;;;5157249;27;20274;-74
2022/03/25 13:00:04;;;;;;;0.20;0.20;;;;;;;;;;5125365;28;20201;-75
2022/03/25 13:02:32;;;;;;;0.03;0.03;;;;;;;;;;5113276;28;20215;-73
2022/03/25 13:05:04;;;;;;;42.95;31.35;;;;;;;;;;5125311;28;20726;-74
2022/03/25 13:07:31;;;;;;;0.00;0.00;;;;;;;;;;5113200;28;20212;-74
2022/03/25 13:09:59;;;;;;;5.82;5.57;;;;;;;;;;5125074;28;20229;-73
2022/03/25 13:12:28;;;;;;;0.00;0.00;;;;;;;;;;5147230;27;20247;-73
2022/03/25 13:14:55;;;;;;;0.00;0.00;;;;;;;;;;5125026;28;20205;-74
2022/03/25 13:17:27;;;;;;;0.10;0.10;;;;;;;;;;5147169;27;20265;-74
2022/03/25 13:19:56;;;;;;;1.40;1.35;;;;;;;;;;5124844;28;20497;-72
2022/03/25 13:22:22;;;;;;;0.00;0.00;;;;;;;;;;5146927;27;20561;-74
2022/03/25 13:24:52;;;;;;;0.10;0.10;;;;;;;;;;5124456;28;20252;-74
2022/03/25 13:27:18;;;;;;;0.00;0.00;;;;;;;;;;5146824;27;20238;-74
2022/03/25 13:29:45;;;;;;;0.08;0.08;;;;;;;;;;5124453;28;20270;-71
2022/03/25 13:32:12;;;;;;;0.00;0.00;;;;;;;;;;5146650;27;20242;-74
2022/03/25 13:34:39;;;;;;;0.08;0.08;;;;;;;;;;5123910;27;20236;-74
2022/03/25 13:37:05;;;;;;;0.00;0.00;;;;;;;;;;5146136;27;20319;-72
2022/03/25 13:39:32;;;;;;;0.00;0.00;;;;;;;;;;5124392;28;20256;-72
2022/03/25 13:42:00;;;;;;;0.00;0.00;;;;;;;;;;5144228;27;20322;-73
2022/03/25 13:44:26;;;;;;;0.00;0.00;;;;;;;;;;5125936;27;20431;-73
2022/03/25 13:46:56;;;;;;;0.00;0.00;;;;;;;;;;5142786;27;20246;-72
2022/03/25 13:49:22;;;;;;;0.00;0.00;;;;;;;;;;5126425;27;20204;-72
2022/03/25 13:51:50;;;;;;;0.08;0.08;;;;;;;;;;5141726;27;20296;-73
2022/03/25 13:54:18;;;;;;;0.00;0.00;;;;;;;;;;5128265;27;20213;-74
2022/03/25 13:56:45;;;;;;;0.10;0.10;;;;;;;;;;5136896;27;20260;-73
2022/03/25 13:59:12;;;;;;;0.10;0.10;;;;;;;;;;5133031;27;20205;-74
2022/03/25 14:01:40;;;;;;;0.00;0.00;;;;;;;;;;5138685;27;20437;-73
2022/03/25 14:04:07;;;;;;;0.03;0.03;;;;;;;;;;5130790;27;20212;-72
2022/03/25 14:06:35;;;;;;;0.00;0.00;;;;;;;;;;5137201;27;20243;-65
2022/03/25 14:09:03;;;;;;;1.45;1.45;;;;;;;;;;5131913;27;20248;-65
2022/03/25 14:11:33;;;;;;;0.10;0.10;;;;;;;;;;5136056;27;20244;-64
2022/03/25 14:13:59;;;;;;;0.00;0.00;;;;;;;;;;5132874;27;20218;-64
2022/03/25 14:16:28;;;;;;;0.10;0.10;;;;;;;;;;5135002;27;20524;-64
2022/03/25 14:18:55;;;;;;;0.00;0.00;;;;;;;;;;5133855;27;20232;-65
2022/03/25 14:21:24;;;;;;;0.00;0.00;;;;;;;;;;5133785;27;20439;-65
2022/03/25 14:23:50;;;;;;;0.00;0.00;;;;;;;;;;5135137;27;20203;-65
2022/03/25 14:26:18;;;;;;;0.10;0.10;;;;;;;;;;5132675;27;20238;-65
2022/03/25 14:28:44;;;;;;;0.10;0.10;;;;;;;;;;5136701;27;20429;-65
2022/03/25 14:31:11;;;;;;;0.10;0.10;;;;;;;;;;5130705;27;20585;-65
2022/03/25 14:33:37;;;;;;;0.10;0.10;;;;;;;;;;5138792;27;20206;-66
2022/03/25 14:36:03;;;;;;;0.00;0.00;;;;;;;;;;5128892;27;20346;-65
2022/03/25 14:38:29;;;;;;;0.10;0.10;;;;;;;;;;5140886;27;20203;-65
2022/03/25 14:40:57;;;;;;;0.40;0.40;;;;;;;;;;5126696;27;20424;-66
2022/03/25 14:43:24;;;;;;;0.05;0.05;;;;;;;;;;5142347;27;20204;-66
2022/03/25 14:45:51;;;;;;;0.68;0.65;;;;;;;;;;5125211;27;20238;-65
2022/03/25 14:48:17;;;;;;;0.10;0.10;;;;;;;;;;5143885;27;20212;-66
2022/03/25 14:50:43;;;;;;;0.00;0.00;;;;;;;;;;5125601;27;20313;-68
2022/03/25 14:53:09;;;;;;;0.03;0.03;;;;;;;;;;5150217;27;20202;-67
2022/03/25 14:55:37;;;;;;;0.05;0.05;;;;;;;;;;5125685;27;20293;-67
2022/03/25 14:58:03;;;;;;;0.05;0.05;;;;;;;;;;5152003;27;20203;-67
2022/03/25 15:00:31;;;;;;;0.03;0.03;;;;;;;;;;5123769;27;20241;-66
2022/03/25 15:02:58;;;;;;;0.00;0.00;;;;;;;;;;5153184;27;20392;-66
2022/03/25 15:05:24;;;;;;;4.53;4.32;;;;;;;;;;5122024;27;20445;-65
2022/03/25 15:07:50;;;;;;;0.10;0.10;;;;;;;;;;5155045;27;20253;-66
2022/03/25 15:10:17;;;;;;;0.00;0.00;;;;;;;;;;5120025;27;20227;-66
2022/03/25 15:12:48;;;;;;;0.57;0.57;;;;;;;;;;5156199;27;20202;-67
2022/03/25 15:15:14;;;;;;;0.10;0.10;;;;;;;;;;5118942;27;20398;-65
2022/03/25 15:17:42;;;;;;;0.05;0.05;;;;;;;;;;5157521;27;20192;-66
2022/03/25 15:20:09;;;;;;;0.10;0.10;;;;;;;;;;5117518;27;20205;-65
2022/03/25 15:22:35;;;;;;;0.03;0.03;;;;;;;;;;5158985;27;20192;-66
2022/03/25 15:25:01;;;;;;;0.08;0.08;;;;;;;;;;5127265;28;20204;-65
2022/03/25 15:27:28;;;;;;;0.13;0.13;;;;;;;;;;5149509;27;20261;-67
2022/03/25 15:35:24;;;;;;;1.17;1.17;;;;;;;;;;5118793;27;20249;-67
2022/03/25 15:37:50;;;;;;;0.00;0.00;;;;;;;;;;5140169;27;20225;-66
2022/03/25 15:40:17;;;;;;;0.00;0.00;;;;;;;;;;5119609;27;20218;-65
2022/03/25 15:42:43;;;;;;;3.75;3.50;;;;;;;;;;5156178;27;20191;-67
2022/03/25 15:45:10;;;;;;;0.38;0.38;;;;;;;;;;5117583;27;20488;-65
2022/03/25 15:47:37;;;;;;;0.00;0.00;;;;;;;;;;5158184;27;20232;-66
2022/03/25 15:50:04;;;;;;;0.10;0.10;;;;;;;;;;5126601;28;20292;-65
2022/03/25 15:52:32;;;;;;;0.00;0.00;;;;;;;;;;5094210;28;20204;-66
2022/03/25 15:54:59;;;;;;;0.03;0.03;;;;;;;;;;5106140;28;20210;-66
2022/03/25 15:57:25;;;;;;;0.10;0.10;;;;;;;;;;5148515;27;20245;-65